Time;durP1;ratioP1;P1;durP2;ratioP2;P2;SDS_P1;SDS_P2;PMS_P1;PMS_P2;Temp;Humidity;BMP_temperature;BMP_pressure;BME280_temperature;BME280_humidity;BME280_pressure;Samples;Min_cycle;Max_cycle;Signal;HPM_P1;HPM_P2
2021/07/20 00:01:41;;;;;;;8.05;3.90;;;;;;;22.25;69.83;99841.59;5115785;28;20027;-74
2021/07/20 00:04:08;;;;;;;6.05;4.05;;;;;;;22.15;69.79;99849.16;5117252;28;20035;-74
2021/07/20 00:06:41;;;;;;;3.95;3.65;;;;;;;22.30;69.67;99858.03;5115401;28;20020;-75
2021/07/20 00:09:11;;;;;;;4.47;3.88;;;;;;;22.31;69.75;99851.09;5115352;28;20028;-74
2021/07/20 00:11:37;;;;;;;5.07;3.63;;;;;;;22.29;69.67;99853.63;5116309;28;20046;-74
2021/07/20 00:14:05;;;;;;;4.43;4.03;;;;;;;22.30;69.70;99857.25;5116488;28;20490;-74
2021/07/20 00:16:33;;;;;;;4.07;3.78;;;;;;;22.33;69.37;99845.81;5114016;28;20034;-74
2021/07/20 00:19:03;;;;;;;4.95;3.72;;;;;;;22.30;68.70;99843.06;5115405;28;20046;-74
2021/07/20 00:21:32;;;;;;;4.05;3.75;;;;;;;22.36;69.30;99844.09;5115372;28;20028;-72
2021/07/20 00:24:00;;;;;;;4.43;3.50;;;;;;;22.29;68.55;99842.28;5115446;28;20031;-72
2021/07/20 00:26:30;;;;;;;4.07;3.67;;;;;;;22.26;69.03;99854.50;5116213;28;20023;-72
2021/07/20 00:28:55;;;;;;;5.70;3.92;;;;;;;22.27;69.47;99844.00;5114906;28;20034;-73
2021/07/20 00:31:24;;;;;;;5.70;4.30;;;;;;;22.26;68.43;99837.50;5115115;28;20031;-73
2021/07/20 00:33:54;;;;;;;3.90;3.50;;;;;;;22.22;68.10;99839.66;5114841;28;20031;-73
2021/07/20 00:36:22;;;;;;;4.70;3.60;;;;;;;22.15;68.75;99839.88;5114753;28;20024;-73
2021/07/20 00:38:50;;;;;;;4.10;3.80;;;;;;;22.17;68.80;99840.22;5114781;28;20044;-73
2021/07/20 00:41:18;;;;;;;4.55;3.83;;;;;;;22.17;68.34;99840.22;5115213;28;20023;-73
2021/07/20 00:43:46;;;;;;;4.25;3.20;;;;;;;22.26;68.35;99842.38;5114628;28;20031;-73
2021/07/20 00:46:11;;;;;;;4.75;3.63;;;;;;;22.18;67.64;99839.78;5115926;28;20059;-73
2021/07/20 00:48:40;;;;;;;4.13;3.40;;;;;;;22.17;67.99;99834.56;5114617;28;20474;-73
2021/07/20 00:51:08;;;;;;;4.07;3.65;;;;;;;22.06;68.11;99826.34;5114772;28;20134;-72
2021/07/20 00:53:37;;;;;;;3.17;2.90;;;;;;;22.09;67.98;99833.94;5115003;28;20397;-73
2021/07/20 00:56:09;;;;;;;4.07;2.95;;;;;;;22.08;67.87;99831.56;5114361;28;20047;-73
2021/07/20 00:58:37;;;;;;;3.10;2.90;;;;;;;22.09;67.60;99825.44;5111144;28;20070;-73
2021/07/20 01:01:08;;;;;;;3.40;3.10;;;;;;;22.13;67.54;99833.88;5114248;28;20023;-73
2021/07/20 01:03:36;;;;;;;3.33;2.85;;;;;;;22.11;67.45;99831.50;5114281;28;20039;-73
2021/07/20 01:06:06;;;;;;;3.35;3.05;;;;;;;22.06;67.41;99817.84;5114508;28;20118;-73
2021/07/20 01:08:38;;;;;;;4.00;2.80;;;;;;;22.09;67.15;99838.81;5114184;28;20031;-73
2021/07/20 01:11:07;;;;;;;4.43;2.67;;;;;;;22.05;66.90;99826.78;5115677;28;20076;-73
2021/07/20 01:13:34;;;;;;;3.28;2.65;;;;;;;22.12;66.80;99835.13;5113816;28;20494;-73
2021/07/20 01:16:03;;;;;;;2.67;2.50;;;;;;;22.10;66.76;99837.56;5131087;27;20015;-72
2021/07/20 01:18:33;;;;;;;3.20;2.90;;;;;;;22.12;66.99;99835.13;5114010;28;20042;-72
2021/07/20 01:21:04;;;;;;;3.80;2.60;;;;;;;22.10;66.94;99843.22;5114416;28;20087;-73
2021/07/20 01:23:33;;;;;;;3.80;2.95;;;;;;;22.09;66.85;99839.59;5114431;28;20027;-73
2021/07/20 01:26:05;;;;;;;4.78;2.83;;;;;;;22.12;66.79;99837.94;5114130;28;20366;-73
2021/07/20 01:28:35;;;;;;;3.75;2.75;;;;;;;22.05;65.63;99841.75;5113586;28;20035;-72
2021/07/20 01:31:04;;;;;;;2.63;2.38;;;;;;;22.17;65.15;99837.41;5114986;28;20023;-73
2021/07/20 01:33:40;;;;;;;2.60;2.40;;;;;;;22.00;65.81;99844.31;5115146;28;20031;-72
2021/07/20 01:36:10;;;;;;;3.45;3.15;;;;;;;22.00;66.51;99818.84;5114106;28;20030;-73
2021/07/20 01:38:40;;;;;;;3.13;2.83;;;;;;;22.08;65.79;99837.22;5114836;28;20378;-73
2021/07/20 01:41:13;;;;;;;3.13;2.80;;;;;;;21.99;66.88;99815.22;5114589;28;20032;-73
2021/07/20 01:43:51;;;;;;;4.28;3.17;;;;;;;22.12;66.67;99827.41;5114221;28;20484;-72
2021/07/20 01:46:20;;;;;;;3.20;2.90;;;;;;;22.00;65.68;99818.84;5114616;28;20110;-72
2021/07/20 01:48:56;;;;;;;4.05;3.15;;;;;;;22.09;66.73;99827.47;5113198;28;20038;-72
2021/07/20 01:51:22;;;;;;;2.75;2.55;;;;;;;22.03;66.98;99829.28;5113282;28;20027;-72
2021/07/20 01:53:49;;;;;;;3.22;2.60;;;;;;;22.13;66.49;99839.53;5113496;28;20036;-72
2021/07/20 01:56:18;;;;;;;5.00;2.60;;;;;;;22.08;66.67;99843.69;5113426;28;20448;-72
2021/07/20 01:58:47;;;;;;;2.92;2.72;;;;;;;22.13;66.26;99839.53;5114202;28;20031;-72
2021/07/20 02:01:21;;;;;;;3.97;2.63;;;;;;;22.06;66.29;99834.06;5113443;28;20028;-72
2021/07/20 02:09:09;;;;;;;4.00;3.03;;;;;;;22.03;66.79;99830.06;5114497;28;20051;-72
2021/07/20 02:11:37;;;;;;;3.40;2.95;;;;;;;22.09;66.47;99839.59;5114263;27;20102;-72
2021/07/20 02:14:10;;;;;;;3.95;3.00;;;;;;;22.05;66.63;99840.94;5114121;28;20138;-74
2021/07/20 02:16:45;;;;;;;4.03;2.60;;;;;;;21.98;66.55;99834.25;5114265;28;20102;-73
2021/07/20 02:19:34;;;;;;;2.65;2.35;;;;;;;22.07;66.55;99830.75;5114515;28;20028;-73
2021/07/20 02:22:04;;;;;;;2.90;2.60;;;;;;;22.03;66.51;99837.78;5112904;28;20119;-73
2021/07/20 02:24:37;;;;;;;4.72;2.60;;;;;;;21.90;66.25;99798.09;5113391;28;20036;-72
2021/07/20 02:27:11;;;;;;;4.68;2.70;;;;;;;22.08;66.09;99832.34;5110150;28;20040;-73
2021/07/20 02:29:39;;;;;;;3.78;2.85;;;;;;;22.00;66.70;99836.66;5114330;28;20455;-72
2021/07/20 02:32:09;;;;;;;3.30;2.50;;;;;;;22.05;67.07;99832.44;5112827;28;20059;-72
2021/07/20 02:34:38;;;;;;;3.03;2.83;;;;;;;21.94;66.02;99827.09;5113613;28;20386;-72
2021/07/20 02:37:10;;;;;;;4.15;2.80;;;;;;;21.96;66.91;99835.97;5129945;27;20058;-72
2021/07/20 02:39:36;;;;;;;3.63;2.40;;;;;;;22.00;66.53;99833.00;5113740;28;20032;-72
2021/07/20 02:42:04;;;;;;;2.90;2.50;;;;;;;21.61;66.87;99775.47;5113199;28;20031;-72
2021/07/20 02:44:33;;;;;;;4.85;2.70;;;;;;;21.96;66.89;99825.41;5113144;28;20035;-72
2021/07/20 02:47:02;;;;;;;3.30;2.60;;;;;;;21.91;66.97;99834.47;5112592;28;20027;-72
2021/07/20 02:49:30;;;;;;;2.78;2.58;;;;;;;21.89;67.23;99836.97;5129656;28;20028;-72
2021/07/20 02:52:02;;;;;;;2.58;2.35;;;;;;;21.71;67.05;99808.34;5112481;28;20123;-72
2021/07/20 02:54:30;;;;;;;2.85;2.60;;;;;;;21.87;67.27;99838.63;5113810;27;20088;-73
2021/07/20 02:56:59;;;;;;;16.30;10.68;;;;;;;21.91;67.01;99840.13;5112930;28;20034;-72
2021/07/20 02:59:30;;;;;;;37.13;21.80;;;;;;;21.92;67.00;99835.25;5112367;28;20085;-72
2021/07/20 03:02:05;;;;;;;34.53;23.45;;;;;;;21.84;67.13;99840.34;5112799;28;20042;-72
2021/07/20 03:04:32;;;;;;;35.40;24.52;;;;;;;21.80;66.71;99838.84;5097060;28;20131;-74
2021/07/20 03:07:08;;;;;;;32.75;24.65;;;;;;;21.82;67.22;99839.19;5112010;28;20102;-73
2021/07/20 03:09:38;;;;;;;26.08;20.95;;;;;;;21.85;67.10;99841.13;5112303;28;20027;-72
2021/07/20 03:12:13;;;;;;;25.40;19.00;;;;;;;21.82;67.29;99845.66;5112144;28;20020;-72
2021/07/20 03:14:44;;;;;;;23.17;19.90;;;;;;;21.76;67.15;99841.78;5112148;28;20359;-72
2021/07/20 03:17:13;;;;;;;23.42;17.80;;;;;;;21.58;67.85;99824.50;5113177;27;20474;-72
2021/07/20 03:19:45;;;;;;;18.65;14.50;;;;;;;21.73;67.31;99842.66;5112280;28;20033;-72
2021/07/20 03:22:13;;;;;;;18.42;14.38;;;;;;;21.86;67.07;99849.19;5113301;28;20019;-72
2021/07/20 03:24:44;;;;;;;16.55;13.57;;;;;;;21.61;67.59;99826.44;5095589;28;20072;-71
2021/07/20 03:27:10;;;;;;;10.77;9.68;;;;;;;21.78;66.73;99841.31;5112048;28;20039;-72
2021/07/20 03:29:43;;;;;;;12.25;10.50;;;;;;;21.75;67.48;99834.53;5111905;28;20028;-72
2021/07/20 03:32:15;;;;;;;11.90;9.60;;;;;;;21.71;67.68;99840.28;5112489;28;20528;-73
2021/07/20 03:34:45;;;;;;;10.30;8.18;;;;;;;21.74;67.51;99838.63;5112228;28;20035;-72
2021/07/20 03:37:14;;;;;;;11.20;7.82;;;;;;;21.71;67.29;99847.97;5129511;28;20051;-73
2021/07/20 03:39:44;;;;;;;10.48;7.63;;;;;;;21.70;67.08;99835.06;5129767;28;20055;-72
2021/07/20 03:42:12;;;;;;;8.23;6.97;;;;;;;21.79;66.90;99857.88;5113123;28;20457;-73
2021/07/20 03:44:40;;;;;;;9.13;7.18;;;;;;;21.81;66.88;99849.72;5112300;28;20096;-72
2021/07/20 03:47:09;;;;;;;12.88;6.25;;;;;;;21.77;67.03;99851.84;5111979;28;20111;-72
2021/07/20 03:49:39;;;;;;;10.00;6.18;;;;;;;21.79;67.00;99859.94;5111937;28;20037;-74
2021/07/20 03:52:05;;;;;;;7.63;6.93;;;;;;;21.71;67.62;99856.47;5115721;28;20088;-72
2021/07/20 03:54:35;;;;;;;9.35;8.40;;;;;;;21.86;66.73;99866.16;5115260;28;20035;-72
2021/07/20 03:57:02;;;;;;;7.85;7.05;;;;;;;21.76;67.11;99861.59;5115705;28;20027;-72
2021/07/20 03:59:33;;;;;;;6.90;4.82;;;;;;;21.83;66.91;99864.22;5115516;28;20036;-72
2021/07/20 04:02:04;;;;;;;8.43;5.93;;;;;;;21.89;66.81;99865.28;5115913;28;20047;-72
2021/07/20 04:04:38;;;;;;;10.30;6.43;;;;;;;21.90;66.49;99871.75;5115587;28;20035;-72
2021/07/20 04:07:17;;;;;;;7.68;6.95;;;;;;;21.88;66.78;99877.84;5116576;28;20300;-72
2021/07/20 04:09:46;;;;;;;7.60;6.90;;;;;;;21.81;66.87;99877.25;5115829;28;20459;-72
2021/07/20 04:12:15;;;;;;;9.88;8.30;;;;;;;21.81;66.78;99869.53;5115568;28;20466;-72
2021/07/20 04:14:46;;;;;;;7.07;6.38;;;;;;;21.84;66.75;99873.50;5116484;28;20051;-72
2021/07/20 04:17:15;;;;;;;6.82;5.82;;;;;;;21.89;66.91;99882.28;5132246;27;20024;-72
2021/07/20 04:19:46;;;;;;;8.38;5.07;;;;;;;21.86;66.97;99871.84;5115671;28;20036;-73
2021/07/20 04:22:17;;;;;;;10.88;6.68;;;;;;;22.00;66.70;99881.16;5115100;28;20054;-72
2021/07/20 04:24:47;;;;;;;10.35;4.90;;;;;;;22.09;66.15;99873.59;5132480;27;20031;-72
2021/07/20 04:27:15;;;;;;;6.50;4.45;;;;;;;22.73;63.80;99882.22;5115247;28;20470;-73
2021/07/20 04:29:44;;;;;;;4.93;4.00;;;;;;;23.24;61.64;99893.56;5114891;28;20035;-73
2021/07/20 04:32:18;;;;;;;8.05;4.65;;;;;;;23.76;59.98;99895.06;5115420;28;20066;-72
2021/07/20 04:34:47;;;;;;;6.15;3.58;;;;;;;24.16;58.38;99898.03;5114787;28;20036;-73
2021/07/20 04:37:17;;;;;;;3.72;3.42;;;;;;;24.73;56.69;99898.72;5114775;28;20135;-73
2021/07/20 04:39:43;;;;;;;6.75;3.83;;;;;;;25.06;55.18;99907.56;5114763;28;20035;-73
2021/07/20 04:42:13;;;;;;;5.95;3.60;;;;;;;25.52;54.85;99906.91;5115246;28;20032;-73
2021/07/20 04:44:38;;;;;;;7.90;3.65;;;;;;;25.87;53.02;99904.56;5114661;28;20028;-73
2021/07/20 04:47:05;;;;;;;6.95;3.00;;;;;;;26.36;51.21;99912.09;5115616;27;20038;-73
2021/07/20 04:49:32;;;;;;;10.95;2.83;;;;;;;26.60;50.48;99913.03;5115844;28;20027;-73
2021/07/20 04:51:58;;;;;;;9.13;3.40;;;;;;;26.99;49.64;99921.78;5115036;28;20546;-72
2021/07/20 04:54:24;;;;;;;2.78;2.58;;;;;;;27.21;49.50;99932.16;5114230;28;20035;-73
2021/07/20 04:57:01;;;;;;;4.80;2.90;;;;;;;27.55;48.62;99937.38;5114392;28;20124;-72
2021/07/20 04:59:29;;;;;;;4.55;2.67;;;;;;;27.97;47.60;99939.31;5115938;28;20031;-73
2021/07/20 05:01:57;;;;;;;3.42;2.53;;;;;;;28.32;46.78;99935.81;5097036;28;20047;-73
2021/07/20 05:04:26;;;;;;;4.35;3.17;;;;;;;28.49;46.52;99930.44;5114518;27;20474;-73
2021/07/20 05:06:52;;;;;;;7.60;3.40;;;;;;;28.76;46.18;99940.78;5114223;28;20106;-73
2021/07/20 05:09:22;;;;;;;5.50;3.33;;;;;;;28.62;46.12;99937.47;5114739;28;20036;-73
2021/07/20 05:11:51;;;;;;;5.32;3.10;;;;;;;28.99;44.75;99939.94;5114114;28;20059;-73
2021/07/20 05:14:23;;;;;;;2.88;2.67;;;;;;;29.36;44.44;99942.31;5113571;28;20048;-72
2021/07/20 05:16:51;;;;;;;5.88;2.67;;;;;;;29.75;43.31;99949.38;5127817;27;20031;-75
2021/07/20 05:19:21;;;;;;;3.03;2.80;;;;;;;29.81;41.90;99928.59;5114208;28;20024;-73
2021/07/20 05:21:53;;;;;;;3.15;2.53;;;;;;;30.27;41.36;99955.25;5127797;27;20084;-73
2021/07/20 05:24:21;;;;;;;2.28;2.08;;;;;;;30.63;40.44;99955.91;5114418;28;20084;-73
2021/07/20 05:26:51;;;;;;;6.05;3.17;;;;;;;30.63;40.74;99958.75;5114753;28;20105;-74
2021/07/20 05:29:20;;;;;;;2.55;2.35;;;;;;;30.82;39.73;99955.56;5113804;28;20032;-74
2021/07/20 05:31:48;;;;;;;4.28;2.03;;;;;;;30.78;39.98;99955.78;5130834;27;20063;-74
2021/07/20 05:34:17;;;;;;;4.25;2.33;;;;;;;30.99;38.54;99948.63;5113892;28;20023;-74
2021/07/20 05:36:43;;;;;;;6.13;2.70;;;;;;;31.17;38.38;99947.50;5114481;28;20031;-74
2021/07/20 05:39:15;;;;;;;2.40;2.20;;;;;;;31.54;37.97;99947.50;5113479;28;20062;-73
2021/07/20 05:41:48;;;;;;;9.17;2.43;;;;;;;31.17;37.75;99958.97;5115014;27;20055;-73
2021/07/20 05:44:14;;;;;;;2.33;2.13;;;;;;;30.90;37.63;99950.94;5114051;28;20080;-73
2021/07/20 05:46:45;;;;;;;2.53;2.03;;;;;;;31.61;37.19;99960.59;5113445;28;20035;-74
2021/07/20 05:49:15;;;;;;;3.08;2.30;;;;;;;31.95;36.85;99969.41;5114772;28;20034;-74
2021/07/20 05:51:41;;;;;;;3.10;2.50;;;;;;;31.99;36.15;99967.84;5130364;27;20020;-73
2021/07/20 05:54:10;;;;;;;4.93;2.00;;;;;;;31.99;36.26;99970.72;5113013;28;20038;-74
2021/07/20 05:56:39;;;;;;;2.28;1.90;;;;;;;31.89;35.93;99978.00;5113406;28;20024;-74
2021/07/20 05:59:09;;;;;;;5.25;2.50;;;;;;;31.36;36.53;99958.59;5113760;28;20027;-74
2021/07/20 06:01:40;;;;;;;3.15;2.42;;;;;;;30.78;39.00;99982.41;5113104;28;20054;-74
2021/07/20 06:04:17;;;;;;;3.88;3.25;;;;;;;30.96;37.88;99980.50;5113406;28;20118;-74
2021/07/20 06:06:45;;;;;;;4.72;2.45;;;;;;;31.39;37.15;99986.34;5114324;28;20031;-74
2021/07/20 06:09:11;;;;;;;2.17;2.08;;;;;;;31.06;38.39;99981.88;5130658;27;20028;-74
2021/07/20 06:11:40;;;;;;;5.05;2.35;;;;;;;30.74;39.18;99979.00;5113160;28;20385;-74
2021/07/20 06:14:11;;;;;;;3.42;2.70;;;;;;;30.62;38.66;99965.78;5112020;28;20555;-74
2021/07/20 06:16:40;;;;;;;5.75;2.80;;;;;;;30.61;39.27;99986.41;5112958;28;20031;-74
2021/07/20 06:19:12;;;;;;;3.05;2.40;;;;;;;30.55;38.97;99977.72;5096457;28;20032;-74
2021/07/20 06:21:46;;;;;;;2.70;2.50;;;;;;;31.25;38.53;99982.28;5114044;28;20027;-74
2021/07/20 06:24:14;;;;;;;3.03;2.40;;;;;;;31.43;36.42;99981.16;5113317;28;20118;-74
2021/07/20 06:26:43;;;;;;;2.72;2.28;;;;;;;31.84;35.72;99980.88;5113806;28;20073;-74
2021/07/20 06:29:12;;;;;;;2.90;2.10;;;;;;;31.66;35.19;99987.81;5130157;27;20386;-74
2021/07/20 06:31:45;;;;;;;2.55;2.13;;;;;;;31.88;35.46;99998.66;5112612;28;20069;-74
2021/07/20 06:34:14;;;;;;;2.42;2.22;;;;;;;32.26;34.62;99991.50;5113092;28;20027;-74
2021/07/20 06:36:43;;;;;;;2.85;2.65;;;;;;;32.49;34.49;99989.47;5113867;27;20023;-74
2021/07/20 06:39:13;;;;;;;2.40;2.20;;;;;;;32.42;33.66;99998.63;5130250;27;20560;-75
2021/07/20 06:41:39;;;;;;;4.53;3.17;;;;;;;31.98;33.92;99997.16;5112911;28;20035;-74
2021/07/20 06:44:07;;;;;;;2.70;2.47;;;;;;;32.18;34.03;100002.72;5112647;28;20552;-74
2021/07/20 06:46:37;;;;;;;2.60;2.40;;;;;;;31.84;35.25;99998.13;5112563;28;20065;-74
2021/07/20 06:49:06;;;;;;;8.18;2.80;;;;;;;31.79;35.51;100003.28;5113040;28;20398;-74
2021/07/20 06:51:35;;;;;;;3.95;2.38;;;;;;;31.32;35.91;99996.22;5112822;28;20032;-74
2021/07/20 06:54:02;;;;;;;2.92;2.35;;;;;;;31.35;36.26;100003.03;5130421;28;20024;-74
2021/07/20 06:56:33;;;;;;;3.95;2.42;;;;;;;31.99;35.47;100004.47;5112930;28;20549;-73
2021/07/20 06:59:04;;;;;;;4.10;2.83;;;;;;;31.15;36.60;100004.66;5129968;28;20059;-75
2021/07/20 07:01:35;;;;;;;4.30;3.00;;;;;;;30.95;37.14;99996.16;5112767;28;20088;-73
2021/07/20 07:04:23;;;;;;;3.58;3.05;;;;;;;31.22;36.71;100004.22;5113000;28;20054;-73
2021/07/20 07:06:57;;;;;;;3.15;2.90;;;;;;;32.01;35.30;99996.91;5112373;28;20114;-73
2021/07/20 07:09:30;;;;;;;2.92;2.53;;;;;;;32.37;33.98;100000.19;5113537;28;20088;-73
2021/07/20 07:12:01;;;;;;;3.53;3.20;;;;;;;31.66;36.09;99994.34;5113396;28;20095;-73
2021/07/20 07:14:36;;;;;;;4.90;2.50;;;;;;;32.83;33.87;99996.88;5129038;28;20108;-73
2021/07/20 07:17:06;;;;;;;4.38;3.63;;;;;;;32.96;33.99;100010.78;5113591;27;20121;-73
2021/07/20 07:19:35;;;;;;;3.53;2.75;;;;;;;33.11;33.43;100016.31;5129881;28;20386;-73
2021/07/20 07:22:04;;;;;;;2.65;2.42;;;;;;;34.08;32.36;100021.41;5112351;28;20063;-73
2021/07/20 07:24:30;;;;;;;10.23;3.40;;;;;;;33.93;31.66;100012.25;5113294;28;20110;-74
2021/07/20 07:26:58;;;;;;;4.93;3.25;;;;;;;33.15;33.27;100016.84;5115927;28;20142;-73
2021/07/20 07:29:31;;;;;;;3.00;2.70;;;;;;;33.30;32.03;100017.38;5100128;28;20124;-73
2021/07/20 07:31:59;;;;;;;3.03;2.72;;;;;;;33.60;32.33;100016.81;5130571;27;20023;-73
2021/07/20 07:34:29;;;;;;;7.85;3.28;;;;;;;32.34;34.07;100016.41;5099283;28;20097;-73
2021/07/20 07:36:59;;;;;;;5.60;3.35;;;;;;;33.03;31.88;100018.16;5116226;28;20385;-73
2021/07/20 07:39:35;;;;;;;3.75;2.72;;;;;;;33.28;31.70;100019.97;5117799;28;20027;-73
2021/07/20 07:42:04;;;;;;;3.55;3.22;;;;;;;33.23;32.30;100008.44;5133368;27;20501;-72
2021/07/20 07:44:34;;;;;;;4.35;3.33;;;;;;;31.63;34.24;100006.84;5117263;27;20074;-73
2021/07/20 07:47:09;;;;;;;4.43;3.20;;;;;;;30.60;36.32;100011.44;5116129;28;20051;-73
2021/07/20 07:49:36;;;;;;;5.38;3.20;;;;;;;30.74;36.17;100018.41;5133165;27;20042;-73
2021/07/20 07:52:07;;;;;;;3.20;3.00;;;;;;;30.33;36.76;100011.94;5115982;28;20110;-73
2021/07/20 07:54:36;;;;;;;4.00;3.22;;;;;;;30.40;37.04;100005.75;5117170;28;20089;-74
2021/07/20 07:57:05;;;;;;;3.60;3.25;;;;;;;30.34;37.58;100008.53;5115547;28;20027;-75
2021/07/20 07:59:32;;;;;;;3.50;3.03;;;;;;;31.34;33.85;100010.06;5116980;28;20027;-73
2021/07/20 08:02:03;;;;;;;3.90;3.50;;;;;;;31.70;34.50;100011.38;5115489;28;20063;-74
2021/07/20 08:04:36;;;;;;;3.88;3.00;;;;;;;31.79;33.72;100020.53;5116055;28;20489;-74
2021/07/20 08:07:02;;;;;;;3.95;3.40;;;;;;;31.97;34.07;100019.38;5116718;28;20050;-73
2021/07/20 08:09:33;;;;;;;5.00;3.63;;;;;;;32.91;32.80;100022.31;5116673;28;20451;-73
2021/07/20 08:12:03;;;;;;;7.25;3.67;;;;;;;30.89;33.34;100006.78;5115742;28;20049;-73
2021/07/20 08:14:31;;;;;;;3.95;3.40;;;;;;;31.08;33.10;100012.97;5131930;27;20054;-73
2021/07/20 08:16:59;;;;;;;8.13;4.03;;;;;;;30.37;33.85;100019.03;5132265;27;20111;-73
2021/07/20 08:19:31;;;;;;;5.75;3.35;;;;;;;30.13;34.63;100010.66;5115088;28;20085;-72
2021/07/20 08:22:03;;;;;;;4.85;3.42;;;;;;;30.16;34.31;100015.38;5116414;28;20205;-73
2021/07/20 08:24:30;;;;;;;5.38;3.33;;;;;;;30.04;33.69;100007.88;5115614;28;20093;-73
2021/07/20 08:27:05;;;;;;;3.42;3.17;;;;;;;30.45;33.46;100007.88;5114977;28;20031;-73
2021/07/20 08:29:36;;;;;;;3.97;3.45;;;;;;;30.61;33.10;100017.97;5114976;28;20062;-73
2021/07/20 08:32:10;;;;;;;3.83;3.47;;;;;;;30.04;34.22;100024.31;5115064;28;20031;-73
2021/07/20 08:34:43;;;;;;;4.30;3.42;;;;;;;30.20;33.91;100015.16;5097937;28;20470;-73
2021/07/20 08:37:12;;;;;;;3.72;3.10;;;;;;;30.35;34.45;100026.56;5131054;27;20110;-73
2021/07/20 08:39:42;;;;;;;5.18;3.55;;;;;;;30.64;33.77;100020.63;5114763;28;20028;-73
2021/07/20 08:42:21;;;;;;;3.60;3.20;;;;;;;30.82;33.87;100018.75;5115743;27;20555;-73
2021/07/20 08:45:04;;;;;;;3.80;3.50;;;;;;;30.75;33.24;100026.50;5114740;28;20032;-73
2021/07/20 08:48:11;;;;;;;5.03;3.88;;;;;;;30.75;33.37;100025.72;5115037;28;20028;-73
2021/07/20 08:51:01;;;;;;;4.43;3.22;;;;;;;30.49;33.90;100014.19;5114458;28;20118;-73
2021/07/20 08:53:51;;;;;;;4.25;3.50;;;;;;;30.55;33.16;100017.91;5114302;28;20466;-73
2021/07/20 08:56:27;;;;;;;3.25;2.95;;;;;;;31.20;32.65;100021.16;5114267;28;20031;-74
2021/07/20 08:59:21;;;;;;;4.05;3.30;;;;;;;31.00;33.26;100007.69;5115664;28;20030;-73
2021/07/20 09:01:49;;;;;;;;;;;;;;;30.39;33.61;100015.66;5104244;28;20035;-73
2021/07/20 09:04:22;;;;;;;4.13;2.80;;;;;;;30.57;34.16;100018.19;5114666;28;20362;-72
2021/07/20 09:07:09;;;;;;;4.30;3.85;;;;;;;30.31;34.68;100014.50;5114741;28;20091;-73
2021/07/20 09:09:39;;;;;;;3.05;2.85;;;;;;;30.71;34.88;100019.41;5113407;28;20046;-73
2021/07/20 09:12:16;;;;;;;3.63;3.33;;;;;;;31.47;33.70;100022.69;5131701;27;20054;-74
2021/07/20 09:14:55;;;;;;;5.95;3.45;;;;;;;31.14;33.73;100023.22;5114042;28;20058;-73
2021/07/20 09:17:46;;;;;;;3.83;3.33;;;;;;;31.44;32.37;100017.22;5113864;28;20114;-74
2021/07/20 09:20:19;;;;;;;3.33;3.03;;;;;;;31.49;32.90;100025.09;5114484;28;20038;-73
2021/07/20 09:22:54;;;;;;;3.78;3.00;;;;;;;31.41;33.00;100006.72;5114690;28;20035;-73
2021/07/20 09:25:33;;;;;;;4.80;3.47;;;;;;;31.32;33.21;100035.66;5113862;28;20115;-72
2021/07/20 09:28:08;;;;;;;4.93;3.55;;;;;;;30.31;34.05;100037.44;5114630;28;20028;-73
2021/07/20 09:30:40;;;;;;;3.30;3.00;;;;;;;30.58;34.31;100034.16;5113631;28;20027;-73
2021/07/20 09:33:31;;;;;;;5.45;3.17;;;;;;;31.17;33.50;100035.78;5113651;28;20115;-74
2021/07/20 09:36:07;;;;;;;4.82;3.90;;;;;;;32.01;31.89;100036.38;5114046;28;20031;-73
2021/07/20 09:38:51;;;;;;;3.35;2.90;;;;;;;32.16;31.38;100013.19;5130534;27;20100;-73
2021/07/20 09:41:35;;;;;;;4.47;3.35;;;;;;;31.26;33.18;100036.38;5113453;28;20027;-73
2021/07/20 09:44:14;;;;;;;5.30;3.08;;;;;;;31.92;32.28;100034.53;5114351;28;20020;-73
2021/07/20 09:46:58;;;;;;;3.55;3.15;;;;;;;31.94;31.92;100031.13;5113548;28;20484;-72
2021/07/20 09:49:48;;;;;;;2.95;2.70;;;;;;;31.31;32.40;100032.00;5113641;28;20034;-73
2021/07/20 09:52:25;;;;;;;3.72;3.33;;;;;;;30.96;33.31;100030.09;5113226;28;20042;-73
2021/07/20 09:55:28;;;;;;;2.90;2.67;;;;;;;32.48;31.95;100031.91;5114082;28;20050;-73
2021/07/20 09:58:00;;;;;;;;;;;;;;;31.65;32.61;100020.75;5113727;28;20032;-73
2021/07/20 10:01:01;;;;;;;7.45;2.95;;;;;;;30.96;33.70;100027.25;5113172;28;19920;-73
2021/07/20 10:03:49;;;;;;;3.17;2.95;;;;;;;30.73;33.75;100023.34;5107653;28;20072;-73
2021/07/20 10:06:32;;;;;;;4.25;3.08;;;;;;;31.58;32.22;100015.44;5114606;27;20106;-73
2021/07/20 10:09:02;;;;;;;3.28;3.08;;;;;;;32.31;31.47;100020.28;5113260;28;20047;-72
2021/07/20 10:11:48;;;;;;;4.70;3.35;;;;;;;33.30;30.30;100025.22;5113329;28;20032;-73
2021/07/20 10:14:32;;;;;;;6.60;3.28;;;;;;;33.81;29.60;100014.41;5094653;28;20103;-74
2021/07/20 10:17:19;;;;;;;3.92;3.40;;;;;;;32.52;30.66;100023.00;5113107;28;20032;-73
2021/07/20 10:19:51;;;;;;;4.20;2.90;;;;;;;32.61;30.67;100024.88;5112426;28;20047;-74
2021/07/20 10:22:29;;;;;;;3.20;2.90;;;;;;;32.57;31.39;100013.59;5130467;27;20041;-73
2021/07/20 10:25:01;;;;;;;4.32;3.50;;;;;;;33.34;30.36;100017.88;5095912;28;20031;-74
2021/07/20 10:27:42;;;;;;;5.75;4.43;;;;;;;33.23;29.74;100015.00;5129923;27;20054;-73
2021/07/20 10:30:12;;;;;;;5.32;3.42;;;;;;;32.65;30.06;100025.38;5112667;28;20031;-73
2021/07/20 10:32:46;;;;;;;3.17;2.83;;;;;;;33.66;29.28;100020.47;5114361;28;20024;-73
2021/07/20 10:35:22;;;;;;;4.20;3.15;;;;;;;33.43;29.28;100019.72;5112775;28;20059;-74
2021/07/20 10:37:53;;;;;;;3.92;3.20;;;;;;;34.64;28.16;100012.50;5112743;28;20077;-73
2021/07/20 10:40:22;;;;;;;3.42;3.03;;;;;;;34.31;28.70;100019.25;5112892;28;20038;-74
2021/07/20 10:42:59;;;;;;;3.47;2.90;;;;;;;34.49;28.39;100017.84;5129896;28;20034;-74
2021/07/20 10:45:33;;;;;;;4.03;3.17;;;;;;;34.64;28.23;100009.63;5130248;28;20050;-72
2021/07/20 10:48:08;;;;;;;4.65;2.80;;;;;;;34.92;27.99;100007.31;5113958;28;20073;-73
2021/07/20 10:50:50;;;;;;;2.80;2.60;;;;;;;34.36;28.90;100010.56;5112815;28;20462;-74
2021/07/20 10:53:24;;;;;;;3.30;3.00;;;;;;;33.90;29.60;100017.00;5112554;28;20110;-74
2021/07/20 10:56:02;;;;;;;4.97;3.28;;;;;;;33.49;29.80;100011.06;5112545;28;20030;-73
2021/07/20 10:59:14;;;;;;;2.72;2.42;;;;;;;33.43;29.62;100013.19;5112518;28;20123;-73
2021/07/20 11:02:01;;;;;;;3.65;2.40;;;;;;;32.99;30.70;100008.97;5113121;28;20035;-73
2021/07/20 11:04:49;;;;;;;3.95;2.63;;;;;;;32.94;30.99;100001.13;5117435;28;20032;-74
2021/07/20 11:07:36;;;;;;;3.03;2.53;;;;;;;32.43;31.60;100003.88;5117187;28;20465;-74
2021/07/20 11:10:12;;;;;;;2.80;2.60;;;;;;;31.87;32.51;99997.09;5117113;28;20370;-73
2021/07/20 11:12:42;;;;;;;5.53;3.17;;;;;;;31.32;33.38;100004.84;5133876;27;20130;-73
2021/07/20 11:15:12;;;;;;;4.25;3.03;;;;;;;31.81;32.28;99994.97;5116193;28;20105;-73
2021/07/20 11:17:43;;;;;;;3.92;3.20;;;;;;;31.30;33.79;99995.94;5116847;27;20470;-74
2021/07/20 11:20:15;;;;;;;3.13;2.83;;;;;;;31.03;33.62;99998.03;5116236;28;20023;-73
2021/07/20 11:22:46;;;;;;;3.58;3.15;;;;;;;31.32;34.75;99992.53;5117549;28;20020;-73
2021/07/20 11:25:16;;;;;;;3.97;3.23;;;;;;;31.60;33.62;100002.16;5116451;28;20102;-72
2021/07/20 11:27:44;;;;;;;3.25;2.88;;;;;;;31.94;33.04;100002.34;5117140;28;20520;-73
2021/07/20 11:30:12;;;;;;;5.32;2.78;;;;;;;32.31;32.62;99994.38;5116212;28;20027;-73
2021/07/20 11:32:40;;;;;;;2.75;2.42;;;;;;;32.32;32.02;100000.94;5116096;28;20032;-73
2021/07/20 11:35:18;;;;;;;5.63;2.42;;;;;;;32.90;31.28;99994.81;5116087;28;20024;-74
2021/07/20 11:37:52;;;;;;;5.28;2.53;;;;;;;32.48;32.45;100000.22;5115993;28;20081;-73
2021/07/20 11:40:28;;;;;;;4.65;3.50;;;;;;;33.07;31.07;100002.16;5118087;28;20035;-74
2021/07/20 11:43:03;;;;;;;4.38;3.30;;;;;;;33.54;30.89;99984.31;5115818;28;20023;-73
2021/07/20 11:45:40;;;;;;;5.88;2.80;;;;;;;33.71;29.62;99999.47;5115900;28;20034;-73
2021/07/20 11:48:11;;;;;;;6.95;3.22;;;;;;;33.68;29.54;99988.22;5115837;28;20034;-73
2021/07/20 11:50:50;;;;;;;5.35;2.97;;;;;;;33.62;28.96;99991.13;5117427;28;20378;-73
2021/07/20 11:53:53;;;;;;;5.28;2.60;;;;;;;33.43;29.92;99993.00;5116009;28;20080;-74
2021/07/20 11:56:26;;;;;;;3.88;2.90;;;;;;;33.33;30.60;99986.69;5116503;28;20020;-74
2021/07/20 11:59:41;;;;;;;2.65;2.45;;;;;;;32.40;31.89;99986.88;5132718;27;20024;-75